sensor_id;sensor_type;location;lat;lon;timestamp;P1;durP1;ratioP1;P2;durP2;ratioP2
8247;SDS011;4164;49.844;8.830;2022-11-21T00:00:53;6.20;;;2.30;;
8247;SDS011;4164;49.844;8.830;2022-11-21T00:03:19;7.57;;;2.60;;
8247;SDS011;4164;49.844;8.830;2022-11-21T00:05:45;6.60;;;2.43;;
8247;SDS011;4164;49.844;8.830;2022-11-21T00:08:14;4.03;;;1.80;;
8247;SDS011;4164;49.844;8.830;2022-11-21T00:10:41;7.60;;;3.10;;
8247;SDS011;4164;49.844;8.830;2022-11-21T00:13:10;12.33;;;3.87;;
8247;SDS011;4164;49.844;8.830;2022-11-21T00:15:46;5.80;;;2.37;;
8247;SDS011;4164;49.844;8.830;2022-11-21T00:18:12;8.20;;;2.20;;
8247;SDS011;4164;49.844;8.830;2022-11-21T00:20:38;10.63;;;2.43;;
8247;SDS011;4164;49.844;8.830;2022-11-21T00:23:05;7.77;;;2.23;;
8247;SDS011;4164;49.844;8.830;2022-11-21T00:25:30;10.07;;;2.87;;
8247;SDS011;4164;49.844;8.830;2022-11-21T00:27:56;4.97;;;2.37;;
8247;SDS011;4164;49.844;8.830;2022-11-21T00:30:21;6.87;;;2.13;;
8247;SDS011;4164;49.844;8.830;2022-11-21T00:32:47;8.50;;;2.17;;
8247;SDS011;4164;49.844;8.830;2022-11-21T00:35:13;6.40;;;1.97;;
8247;SDS011;4164;49.844;8.830;2022-11-21T00:37:38;5.83;;;1.90;;
8247;SDS011;4164;49.844;8.830;2022-11-21T00:40:04;17.33;;;3.50;;
8247;SDS011;4164;49.844;8.830;2022-11-21T00:42:30;8.50;;;2.00;;
8247;SDS011;4164;49.844;8.830;2022-11-21T00:44:56;8.97;;;2.33;;
8247;SDS011;4164;49.844;8.830;2022-11-21T00:47:22;4.07;;;2.03;;
8247;SDS011;4164;49.844;8.830;2022-11-21T00:49:47;8.33;;;2.80;;
8247;SDS011;4164;49.844;8.830;2022-11-21T00:52:13;5.83;;;2.40;;
8247;SDS011;4164;49.844;8.830;2022-11-21T00:54:39;8.87;;;2.10;;
8247;SDS011;4164;49.844;8.830;2022-11-21T00:57:05;5.27;;;2.67;;
8247;SDS011;4164;49.844;8.830;2022-11-21T00:59:31;10.37;;;2.90;;
8247;SDS011;4164;49.844;8.830;2022-11-21T01:01:56;10.50;;;2.80;;
8247;SDS011;4164;49.844;8.830;2022-11-21T01:04:22;8.07;;;2.60;;
8247;SDS011;4164;49.844;8.830;2022-11-21T01:06:47;9.07;;;2.60;;
8247;SDS011;4164;49.844;8.830;2022-11-21T01:09:13;10.30;;;2.83;;
8247;SDS011;4164;49.844;8.830;2022-11-21T01:11:38;9.90;;;2.70;;
8247;SDS011;4164;49.844;8.830;2022-11-21T01:14:04;12.23;;;3.43;;
8247;SDS011;4164;49.844;8.830;2022-11-21T01:16:30;11.27;;;3.10;;
8247;SDS011;4164;49.844;8.830;2022-11-21T01:18:56;10.77;;;2.90;;
8247;SDS011;4164;49.844;8.830;2022-11-21T01:21:23;10.77;;;3.30;;
8247;SDS011;4164;49.844;8.830;2022-11-21T01:23:50;10.13;;;3.13;;
8247;SDS011;4164;49.844;8.830;2022-11-21T01:26:26;5.77;;;3.43;;
8247;SDS011;4164;49.844;8.830;2022-11-21T01:28:52;11.13;;;2.83;;
8247;SDS011;4164;49.844;8.830;2022-11-21T01:31:19;7.77;;;2.50;;
8247;SDS011;4164;49.844;8.830;2022-11-21T01:33:50;9.90;;;2.80;;
8247;SDS011;4164;49.844;8.830;2022-11-21T01:38:47;7.97;;;2.53;;
8247;SDS011;4164;49.844;8.830;2022-11-21T01:41:15;7.43;;;2.93;;
8247;SDS011;4164;49.844;8.830;2022-11-21T01:43:46;11.53;;;2.67;;
8247;SDS011;4164;49.844;8.830;2022-11-21T01:46:21;9.03;;;2.47;;
8247;SDS011;4164;49.844;8.830;2022-11-21T01:49:01;8.27;;;2.40;;
8247;SDS011;4164;49.844;8.830;2022-11-21T01:54:13;6.63;;;2.20;;
8247;SDS011;4164;49.844;8.830;2022-11-21T01:59:39;7.50;;;2.37;;
8247;SDS011;4164;49.844;8.830;2022-11-21T02:02:10;10.67;;;2.60;;
8247;SDS011;4164;49.844;8.830;2022-11-21T02:04:39;7.47;;;2.27;;
8247;SDS011;4164;49.844;8.830;2022-11-21T02:07:07;16.03;;;3.40;;
8247;SDS011;4164;49.844;8.830;2022-11-21T02:09:35;9.17;;;2.53;;
8247;SDS011;4164;49.844;8.830;2022-11-21T02:12:08;8.30;;;2.73;;
8247;SDS011;4164;49.844;8.830;2022-11-21T02:14:39;14.93;;;2.60;;
8247;SDS011;4164;49.844;8.830;2022-11-21T02:17:07;14.30;;;2.43;;
8247;SDS011;4164;49.844;8.830;2022-11-21T02:22:14;6.17;;;1.80;;
8247;SDS011;4164;49.844;8.830;2022-11-21T02:27:35;9.00;;;2.30;;
8247;SDS011;4164;49.844;8.830;2022-11-21T02:30:01;9.03;;;2.50;;
8247;SDS011;4164;49.844;8.830;2022-11-21T02:32:32;10.27;;;2.20;;
8247;SDS011;4164;49.844;8.830;2022-11-21T02:35:00;5.23;;;2.07;;
8247;SDS011;4164;49.844;8.830;2022-11-21T02:37:26;9.27;;;2.37;;
8247;SDS011;4164;49.844;8.830;2022-11-21T02:39:51;15.83;;;3.70;;
8247;SDS011;4164;49.844;8.830;2022-11-21T02:47:44;14.33;;;2.63;;
8247;SDS011;4164;49.844;8.830;2022-11-21T02:52:43;10.20;;;2.37;;
8247;SDS011;4164;49.844;8.830;2022-11-21T02:55:08;11.17;;;2.80;;
8247;SDS011;4164;49.844;8.830;2022-11-21T02:57:36;4.90;;;2.10;;
8247;SDS011;4164;49.844;8.830;2022-11-21T03:00:03;14.03;;;2.90;;
8247;SDS011;4164;49.844;8.830;2022-11-21T03:02:29;8.17;;;2.90;;
8247;SDS011;4164;49.844;8.830;2022-11-21T03:04:55;4.83;;;2.60;;
8247;SDS011;4164;49.844;8.830;2022-11-21T03:07:21;11.00;;;3.23;;
8247;SDS011;4164;49.844;8.830;2022-11-21T03:09:46;8.63;;;3.33;;
8247;SDS011;4164;49.844;8.830;2022-11-21T03:12:12;10.27;;;2.80;;
8247;SDS011;4164;49.844;8.830;2022-11-21T03:14:37;8.93;;;2.90;;
8247;SDS011;4164;49.844;8.830;2022-11-21T03:17:03;8.47;;;2.80;;
8247;SDS011;4164;49.844;8.830;2022-11-21T03:19:29;12.43;;;3.53;;
8247;SDS011;4164;49.844;8.830;2022-11-21T03:21:57;8.33;;;2.30;;
8247;SDS011;4164;49.844;8.830;2022-11-21T03:24:23;13.03;;;2.63;;
8247;SDS011;4164;49.844;8.830;2022-11-21T03:26:48;9.77;;;2.67;;
8247;SDS011;4164;49.844;8.830;2022-11-21T03:29:14;6.67;;;2.30;;
8247;SDS011;4164;49.844;8.830;2022-11-21T03:31:40;4.23;;;2.23;;
8247;SDS011;4164;49.844;8.830;2022-11-21T03:34:05;6.73;;;2.10;;
8247;SDS011;4164;49.844;8.830;2022-11-21T03:36:32;13.33;;;3.03;;
8247;SDS011;4164;49.844;8.830;2022-11-21T03:38:57;7.13;;;2.40;;
8247;SDS011;4164;49.844;8.830;2022-11-21T03:41:24;6.00;;;2.17;;
8247;SDS011;4164;49.844;8.830;2022-11-21T03:43:53;7.03;;;2.10;;
8247;SDS011;4164;49.844;8.830;2022-11-21T03:46:19;6.47;;;2.07;;
8247;SDS011;4164;49.844;8.830;2022-11-21T03:48:45;6.90;;;2.33;;
8247;SDS011;4164;49.844;8.830;2022-11-21T03:51:10;7.23;;;1.93;;
8247;SDS011;4164;49.844;8.830;2022-11-21T03:53:36;6.43;;;1.90;;
8247;SDS011;4164;49.844;8.830;2022-11-21T03:56:01;9.70;;;2.50;;
8247;SDS011;4164;49.844;8.830;2022-11-21T03:58:27;7.00;;;2.30;;
8247;SDS011;4164;49.844;8.830;2022-11-21T04:00:53;8.63;;;2.20;;
8247;SDS011;4164;49.844;8.830;2022-11-21T04:03:18;6.60;;;2.50;;
8247;SDS011;4164;49.844;8.830;2022-11-21T04:05:44;4.70;;;2.00;;
8247;SDS011;4164;49.844;8.830;2022-11-21T04:08:09;7.37;;;2.00;;
8247;SDS011;4164;49.844;8.830;2022-11-21T04:10:35;14.57;;;2.23;;
8247;SDS011;4164;49.844;8.830;2022-11-21T04:13:00;4.83;;;2.23;;
8247;SDS011;4164;49.844;8.830;2022-11-21T04:15:26;5.37;;;1.97;;
8247;SDS011;4164;49.844;8.830;2022-11-21T04:17:51;7.53;;;2.20;;
8247;SDS011;4164;49.844;8.830;2022-11-21T04:20:17;10.17;;;2.50;;
8247;SDS011;4164;49.844;8.830;2022-11-21T04:22:43;2.80;;;1.63;;
8247;SDS011;4164;49.844;8.830;2022-11-21T04:25:08;8.00;;;2.13;;
8247;SDS011;4164;49.844;8.830;2022-11-21T04:27:34;5.90;;;2.20;;
8247;SDS011;4164;49.844;8.830;2022-11-21T04:30:00;7.50;;;2.33;;
8247;SDS011;4164;49.844;8.830;2022-11-21T04:32:25;7.37;;;1.90;;
8247;SDS011;4164;49.844;8.830;2022-11-21T04:34:51;6.73;;;2.60;;
8247;SDS011;4164;49.844;8.830;2022-11-21T04:37:17;4.90;;;2.00;;
8247;SDS011;4164;49.844;8.830;2022-11-21T04:39:42;6.87;;;2.63;;
8247;SDS011;4164;49.844;8.830;2022-11-21T04:42:08;8.73;;;1.90;;
8247;SDS011;4164;49.844;8.830;2022-11-21T04:44:33;3.83;;;1.70;;
8247;SDS011;4164;49.844;8.830;2022-11-21T04:46:59;8.10;;;2.20;;
8247;SDS011;4164;49.844;8.830;2022-11-21T04:49:24;6.37;;;2.73;;
8247;SDS011;4164;49.844;8.830;2022-11-21T04:51:50;12.00;;;3.70;;
8247;SDS011;4164;49.844;8.830;2022-11-21T04:54:15;11.43;;;4.13;;
8247;SDS011;4164;49.844;8.830;2022-11-21T04:56:41;6.93;;;3.47;;
8247;SDS011;4164;49.844;8.830;2022-11-21T04:59:06;11.17;;;2.70;;
8247;SDS011;4164;49.844;8.830;2022-11-21T05:01:33;7.33;;;3.00;;
8247;SDS011;4164;49.844;8.830;2022-11-21T05:03:58;5.07;;;2.20;;
8247;SDS011;4164;49.844;8.830;2022-11-21T05:06:24;7.20;;;2.30;;
8247;SDS011;4164;49.844;8.830;2022-11-21T05:08:49;5.20;;;2.43;;
8247;SDS011;4164;49.844;8.830;2022-11-21T05:11:15;3.23;;;1.57;;
8247;SDS011;4164;49.844;8.830;2022-11-21T05:13:59;5.13;;;2.00;;
8247;SDS011;4164;49.844;8.830;2022-11-21T05:16:24;5.00;;;2.07;;
8247;SDS011;4164;49.844;8.830;2022-11-21T05:18:50;6.67;;;1.80;;
8247;SDS011;4164;49.844;8.830;2022-11-21T05:21:15;5.80;;;2.53;;
8247;SDS011;4164;49.844;8.830;2022-11-21T05:23:41;4.73;;;2.03;;
8247;SDS011;4164;49.844;8.830;2022-11-21T05:26:06;3.73;;;1.70;;
8247;SDS011;4164;49.844;8.830;2022-11-21T05:28:32;4.73;;;1.40;;
8247;SDS011;4164;49.844;8.830;2022-11-21T05:30:57;2.77;;;1.90;;
8247;SDS011;4164;49.844;8.830;2022-11-21T05:33:23;8.67;;;1.97;;
8247;SDS011;4164;49.844;8.830;2022-11-21T05:35:49;6.17;;;2.70;;
8247;SDS011;4164;49.844;8.830;2022-11-21T05:38:14;6.43;;;2.63;;
8247;SDS011;4164;49.844;8.830;2022-11-21T05:40:40;8.37;;;3.40;;
8247;SDS011;4164;49.844;8.830;2022-11-21T05:43:05;7.80;;;4.83;;
8247;SDS011;4164;49.844;8.830;2022-11-21T05:45:50;4.20;;;2.77;;
8247;SDS011;4164;49.844;8.830;2022-11-21T05:48:16;5.10;;;2.77;;
8247;SDS011;4164;49.844;8.830;2022-11-21T05:50:45;3.93;;;2.27;;
8247;SDS011;4164;49.844;8.830;2022-11-21T05:53:12;3.77;;;1.77;;
8247;SDS011;4164;49.844;8.830;2022-11-21T05:55:37;2.53;;;1.63;;
8247;SDS011;4164;49.844;8.830;2022-11-21T05:58:03;4.53;;;1.77;;
8247;SDS011;4164;49.844;8.830;2022-11-21T06:00:29;2.03;;;1.37;;
8247;SDS011;4164;49.844;8.830;2022-11-21T06:02:54;6.30;;;1.70;;
8247;SDS011;4164;49.844;8.830;2022-11-21T06:05:38;5.27;;;1.70;;
8247;SDS011;4164;49.844;8.830;2022-11-21T06:08:04;4.57;;;1.67;;
8247;SDS011;4164;49.844;8.830;2022-11-21T06:10:30;2.93;;;1.20;;
8247;SDS011;4164;49.844;8.830;2022-11-21T06:12:58;3.67;;;1.30;;
8247;SDS011;4164;49.844;8.830;2022-11-21T06:15:24;4.90;;;1.70;;
8247;SDS011;4164;49.844;8.830;2022-11-21T06:17:50;2.97;;;1.53;;
8247;SDS011;4164;49.844;8.830;2022-11-21T06:20:16;1.97;;;1.40;;
8247;SDS011;4164;49.844;8.830;2022-11-21T06:22:41;3.77;;;1.63;;
8247;SDS011;4164;49.844;8.830;2022-11-21T06:25:07;3.77;;;1.30;;
8247;SDS011;4164;49.844;8.830;2022-11-21T06:27:33;2.77;;;1.30;;
8247;SDS011;4164;49.844;8.830;2022-11-21T06:29:58;2.03;;;1.30;;
8247;SDS011;4164;49.844;8.830;2022-11-21T06:32:24;5.87;;;1.87;;
8247;SDS011;4164;49.844;8.830;2022-11-21T06:34:49;6.20;;;1.87;;
8247;SDS011;4164;49.844;8.830;2022-11-21T06:37:15;4.37;;;1.80;;
8247;SDS011;4164;49.844;8.830;2022-11-21T06:39:40;5.00;;;1.57;;
8247;SDS011;4164;49.844;8.830;2022-11-21T06:42:06;2.07;;;1.70;;
8247;SDS011;4164;49.844;8.830;2022-11-21T06:44:32;3.37;;;1.50;;
8247;SDS011;4164;49.844;8.830;2022-11-21T06:46:57;7.13;;;2.10;;
8247;SDS011;4164;49.844;8.830;2022-11-21T06:49:23;4.20;;;2.60;;
8247;SDS011;4164;49.844;8.830;2022-11-21T06:51:48;3.40;;;1.67;;
8247;SDS011;4164;49.844;8.830;2022-11-21T06:54:14;6.43;;;2.83;;
8247;SDS011;4164;49.844;8.830;2022-11-21T06:56:39;2.53;;;1.60;;
8247;SDS011;4164;49.844;8.830;2022-11-21T06:59:05;2.87;;;1.70;;
8247;SDS011;4164;49.844;8.830;2022-11-21T07:01:30;5.57;;;2.13;;
8247;SDS011;4164;49.844;8.830;2022-11-21T07:03:56;1.53;;;1.30;;
8247;SDS011;4164;49.844;8.830;2022-11-21T07:06:22;4.40;;;1.57;;
8247;SDS011;4164;49.844;8.830;2022-11-21T07:08:50;2.73;;;1.40;;
8247;SDS011;4164;49.844;8.830;2022-11-21T07:11:17;2.97;;;1.67;;
8247;SDS011;4164;49.844;8.830;2022-11-21T07:13:43;3.53;;;1.57;;
8247;SDS011;4164;49.844;8.830;2022-11-21T07:16:09;3.70;;;1.70;;
8247;SDS011;4164;49.844;8.830;2022-11-21T07:18:38;2.53;;;1.57;;
8247;SDS011;4164;49.844;8.830;2022-11-21T07:21:04;3.37;;;2.07;;
8247;SDS011;4164;49.844;8.830;2022-11-21T07:23:31;6.57;;;1.87;;
8247;SDS011;4164;49.844;8.830;2022-11-21T07:26:01;5.13;;;1.97;;
8247;SDS011;4164;49.844;8.830;2022-11-21T07:28:31;3.50;;;1.50;;
8247;SDS011;4164;49.844;8.830;2022-11-21T07:30:58;5.80;;;1.90;;
8247;SDS011;4164;49.844;8.830;2022-11-21T07:33:24;4.27;;;1.83;;
8247;SDS011;4164;49.844;8.830;2022-11-21T07:35:50;4.77;;;2.13;;
8247;SDS011;4164;49.844;8.830;2022-11-21T07:38:16;5.67;;;1.80;;
8247;SDS011;4164;49.844;8.830;2022-11-21T07:40:42;5.63;;;1.60;;
8247;SDS011;4164;49.844;8.830;2022-11-21T07:43:08;3.13;;;1.40;;
8247;SDS011;4164;49.844;8.830;2022-11-21T07:45:35;3.53;;;1.77;;
8247;SDS011;4164;49.844;8.830;2022-11-21T07:48:01;5.73;;;1.70;;
8247;SDS011;4164;49.844;8.830;2022-11-21T07:50:29;2.97;;;1.40;;
8247;SDS011;4164;49.844;8.830;2022-11-21T07:52:58;4.57;;;2.07;;
8247;SDS011;4164;49.844;8.830;2022-11-21T07:55:25;3.93;;;1.90;;
8247;SDS011;4164;49.844;8.830;2022-11-21T07:58:00;4.87;;;2.40;;
8247;SDS011;4164;49.844;8.830;2022-11-21T08:00:28;7.73;;;3.83;;
8247;SDS011;4164;49.844;8.830;2022-11-21T08:02:54;3.07;;;1.80;;
8247;SDS011;4164;49.844;8.830;2022-11-21T08:05:20;7.77;;;1.90;;
8247;SDS011;4164;49.844;8.830;2022-11-21T08:07:46;6.70;;;1.67;;
8247;SDS011;4164;49.844;8.830;2022-11-21T08:10:12;3.27;;;1.77;;
8247;SDS011;4164;49.844;8.830;2022-11-21T08:12:38;7.93;;;2.60;;
8247;SDS011;4164;49.844;8.830;2022-11-21T08:15:03;9.60;;;2.73;;
8247;SDS011;4164;49.844;8.830;2022-11-21T08:17:30;4.30;;;1.83;;
8247;SDS011;4164;49.844;8.830;2022-11-21T08:19:56;5.63;;;1.93;;
8247;SDS011;4164;49.844;8.830;2022-11-21T08:22:24;9.03;;;2.10;;
8247;SDS011;4164;49.844;8.830;2022-11-21T08:24:49;5.20;;;2.13;;
8247;SDS011;4164;49.844;8.830;2022-11-21T08:27:15;4.80;;;2.50;;
8247;SDS011;4164;49.844;8.830;2022-11-21T08:29:44;6.30;;;1.90;;
8247;SDS011;4164;49.844;8.830;2022-11-21T08:32:10;2.93;;;2.10;;
8247;SDS011;4164;49.844;8.830;2022-11-21T08:34:35;5.23;;;2.10;;
8247;SDS011;4164;49.844;8.830;2022-11-21T08:37:01;3.87;;;1.90;;
8247;SDS011;4164;49.844;8.830;2022-11-21T08:39:27;5.80;;;2.20;;
8247;SDS011;4164;49.844;8.830;2022-11-21T08:41:54;5.80;;;2.20;;
8247;SDS011;4164;49.844;8.830;2022-11-21T08:44:27;6.37;;;2.20;;
8247;SDS011;4164;49.844;8.830;2022-11-21T08:46:54;6.17;;;2.00;;
8247;SDS011;4164;49.844;8.830;2022-11-21T08:49:19;3.00;;;1.70;;
8247;SDS011;4164;49.844;8.830;2022-11-21T08:51:45;4.60;;;1.50;;
8247;SDS011;4164;49.844;8.830;2022-11-21T08:54:18;7.37;;;1.70;;
8247;SDS011;4164;49.844;8.830;2022-11-21T08:56:45;6.23;;;2.00;;
8247;SDS011;4164;49.844;8.830;2022-11-21T08:59:11;5.97;;;1.97;;
8247;SDS011;4164;49.844;8.830;2022-11-21T09:01:37;3.53;;;1.90;;
8247;SDS011;4164;49.844;8.830;2022-11-21T09:04:03;7.27;;;2.30;;
8247;SDS011;4164;49.844;8.830;2022-11-21T09:06:29;6.80;;;2.57;;
8247;SDS011;4164;49.844;8.830;2022-11-21T09:08:55;3.87;;;2.57;;
8247;SDS011;4164;49.844;8.830;2022-11-21T09:11:21;6.17;;;2.30;;
8247;SDS011;4164;49.844;8.830;2022-11-21T09:13:46;6.67;;;2.50;;
8247;SDS011;4164;49.844;8.830;2022-11-21T09:16:32;6.30;;;2.97;;
8247;SDS011;4164;49.844;8.830;2022-11-21T09:19:16;6.03;;;2.17;;
8247;SDS011;4164;49.844;8.830;2022-11-21T09:21:41;8.20;;;2.87;;
8247;SDS011;4164;49.844;8.830;2022-11-21T09:24:07;5.33;;;1.87;;
8247;SDS011;4164;49.844;8.830;2022-11-21T09:26:32;4.90;;;2.10;;
8247;SDS011;4164;49.844;8.830;2022-11-21T09:28:58;5.47;;;2.30;;
8247;SDS011;4164;49.844;8.830;2022-11-21T09:31:24;5.03;;;2.23;;
8247;SDS011;4164;49.844;8.830;2022-11-21T09:33:49;8.03;;;2.27;;
8247;SDS011;4164;49.844;8.830;2022-11-21T09:36:15;7.07;;;2.40;;
8247;SDS011;4164;49.844;8.830;2022-11-21T09:38:40;4.47;;;2.10;;
8247;SDS011;4164;49.844;8.830;2022-11-21T09:41:17;7.60;;;2.67;;
8247;SDS011;4164;49.844;8.830;2022-11-21T09:50:04;4.17;;;1.50;;
8247;SDS011;4164;49.844;8.830;2022-11-21T09:52:37;3.87;;;1.87;;
8247;SDS011;4164;49.844;8.830;2022-11-21T09:55:17;2.23;;;1.70;;
8247;SDS011;4164;49.844;8.830;2022-11-21T09:57:52;3.33;;;1.63;;
8247;SDS011;4164;49.844;8.830;2022-11-21T10:00:20;6.73;;;1.97;;
8247;SDS011;4164;49.844;8.830;2022-11-21T10:02:47;5.27;;;2.10;;
8247;SDS011;4164;49.844;8.830;2022-11-21T10:05:14;4.43;;;1.70;;
8247;SDS011;4164;49.844;8.830;2022-11-21T10:07:40;5.27;;;2.00;;
8247;SDS011;4164;49.844;8.830;2022-11-21T10:26:53;8.03;;;2.00;;
8247;SDS011;4164;49.844;8.830;2022-11-21T10:29:29;6.03;;;2.67;;
8247;SDS011;4164;49.844;8.830;2022-11-21T10:32:03;4.37;;;1.70;;
8247;SDS011;4164;49.844;8.830;2022-11-21T10:34:41;6.60;;;2.60;;
8247;SDS011;4164;49.844;8.830;2022-11-21T10:39:54;4.63;;;2.50;;
8247;SDS011;4164;49.844;8.830;2022-11-21T10:42:34;4.10;;;1.83;;
8247;SDS011;4164;49.844;8.830;2022-11-21T10:45:04;8.87;;;2.43;;
8247;SDS011;4164;49.844;8.830;2022-11-21T10:47:42;3.90;;;2.10;;
8247;SDS011;4164;49.844;8.830;2022-11-21T10:52:35;6.83;;;2.40;;
8247;SDS011;4164;49.844;8.830;2022-11-21T10:55:10;5.77;;;1.90;;
8247;SDS011;4164;49.844;8.830;2022-11-21T11:02:39;5.10;;;2.00;;
8247;SDS011;4164;49.844;8.830;2022-11-21T11:07:41;3.90;;;2.67;;
8247;SDS011;4164;49.844;8.830;2022-11-21T11:10:14;6.23;;;2.50;;
8247;SDS011;4164;49.844;8.830;2022-11-21T11:12:42;4.93;;;1.77;;
8247;SDS011;4164;49.844;8.830;2022-11-21T11:15:31;6.20;;;2.60;;
8247;SDS011;4164;49.844;8.830;2022-11-21T11:17:57;5.90;;;2.07;;
8247;SDS011;4164;49.844;8.830;2022-11-21T11:20:43;3.30;;;2.03;;
8247;SDS011;4164;49.844;8.830;2022-11-21T11:25:44;4.00;;;2.20;;
8247;SDS011;4164;49.844;8.830;2022-11-21T11:28:18;4.97;;;1.83;;
8247;SDS011;4164;49.844;8.830;2022-11-21T11:30:44;4.37;;;1.93;;
8247;SDS011;4164;49.844;8.830;2022-11-21T11:33:31;3.17;;;1.67;;
8247;SDS011;4164;49.844;8.830;2022-11-21T11:36:12;5.77;;;2.27;;
8247;SDS011;4164;49.844;8.830;2022-11-21T11:38:41;5.40;;;1.97;;
8247;SDS011;4164;49.844;8.830;2022-11-21T11:44:33;3.93;;;1.93;;
8247;SDS011;4164;49.844;8.830;2022-11-21T11:47:27;4.90;;;1.93;;
8247;SDS011;4164;49.844;8.830;2022-11-21T11:50:02;5.33;;;1.97;;
8247;SDS011;4164;49.844;8.830;2022-11-21T11:52:49;7.77;;;1.90;;
8247;SDS011;4164;49.844;8.830;2022-11-21T11:55:42;3.50;;;1.87;;
8247;SDS011;4164;49.844;8.830;2022-11-21T11:58:22;8.13;;;3.37;;
8247;SDS011;4164;49.844;8.830;2022-11-21T12:03:20;5.87;;;2.63;;
8247;SDS011;4164;49.844;8.830;2022-11-21T12:08:40;8.03;;;3.00;;
8247;SDS011;4164;49.844;8.830;2022-11-21T12:11:40;5.80;;;2.03;;
8247;SDS011;4164;49.844;8.830;2022-11-21T12:14:35;6.33;;;1.97;;
8247;SDS011;4164;49.844;8.830;2022-11-21T12:17:37;2.77;;;1.90;;
8247;SDS011;4164;49.844;8.830;2022-11-21T12:20:16;6.47;;;1.93;;
8247;SDS011;4164;49.844;8.830;2022-11-21T12:22:49;10.47;;;3.03;;
8247;SDS011;4164;49.844;8.830;2022-11-21T12:25:18;5.67;;;2.80;;
8247;SDS011;4164;49.844;8.830;2022-11-21T12:27:53;7.03;;;3.17;;
8247;SDS011;4164;49.844;8.830;2022-11-21T12:33:22;7.47;;;2.70;;
8247;SDS011;4164;49.844;8.830;2022-11-21T12:36:06;3.60;;;1.87;;
8247;SDS011;4164;49.844;8.830;2022-11-21T12:38:53;4.50;;;2.17;;
8247;SDS011;4164;49.844;8.830;2022-11-21T12:41:56;3.97;;;2.30;;
8247;SDS011;4164;49.844;8.830;2022-11-21T12:51:23;10.60;;;3.73;;
8247;SDS011;4164;49.844;8.830;2022-11-21T12:57:07;3.80;;;2.20;;
8247;SDS011;4164;49.844;8.830;2022-11-21T13:05:43;3.77;;;1.93;;
8247;SDS011;4164;49.844;8.830;2022-11-21T13:08:12;10.23;;;3.00;;
8247;SDS011;4164;49.844;8.830;2022-11-21T13:10:44;5.73;;;2.57;;
8247;SDS011;4164;49.844;8.830;2022-11-21T13:13:42;8.00;;;2.80;;
8247;SDS011;4164;49.844;8.830;2022-11-21T13:16:15;12.80;;;4.90;;
8247;SDS011;4164;49.844;8.830;2022-11-21T13:19:00;9.53;;;3.27;;
8247;SDS011;4164;49.844;8.830;2022-11-21T13:21:42;8.63;;;3.30;;
8247;SDS011;4164;49.844;8.830;2022-11-21T13:24:53;6.90;;;2.13;;
8247;SDS011;4164;49.844;8.830;2022-11-21T13:27:22;9.67;;;3.60;;
8247;SDS011;4164;49.844;8.830;2022-11-21T13:32:38;6.20;;;2.50;;
8247;SDS011;4164;49.844;8.830;2022-11-21T13:35:56;8.10;;;3.87;;
8247;SDS011;4164;49.844;8.830;2022-11-21T13:38:05;8.03;;;2.70;;
8247;SDS011;4164;49.844;8.830;2022-11-21T13:40:33;5.43;;;2.37;;
8247;SDS011;4164;49.844;8.830;2022-11-21T13:45:40;6.87;;;1.90;;
8247;SDS011;4164;49.844;8.830;2022-11-21T14:07:20;7.57;;;2.50;;
8247;SDS011;4164;49.844;8.830;2022-11-21T14:09:48;3.97;;;1.90;;
8247;SDS011;4164;49.844;8.830;2022-11-21T14:12:34;3.63;;;1.60;;
8247;SDS011;4164;49.844;8.830;2022-11-21T14:17:38;6.03;;;2.27;;
8247;SDS011;4164;49.844;8.830;2022-11-21T14:20:14;5.57;;;2.40;;
8247;SDS011;4164;49.844;8.830;2022-11-21T14:25:27;3.50;;;1.97;;
8247;SDS011;4164;49.844;8.830;2022-11-21T14:27:59;5.50;;;2.30;;
8247;SDS011;4164;49.844;8.830;2022-11-21T14:30:28;8.30;;;2.23;;
8247;SDS011;4164;49.844;8.830;2022-11-21T14:32:53;7.63;;;2.13;;
8247;SDS011;4164;49.844;8.830;2022-11-21T14:35:20;8.50;;;2.70;;
8247;SDS011;4164;49.844;8.830;2022-11-21T14:37:48;6.67;;;2.53;;
8247;SDS011;4164;49.844;8.830;2022-11-21T14:40:21;6.00;;;2.33;;
8247;SDS011;4164;49.844;8.830;2022-11-21T14:42:48;3.77;;;1.90;;
8247;SDS011;4164;49.844;8.830;2022-11-21T14:45:21;5.37;;;2.10;;
8247;SDS011;4164;49.844;8.830;2022-11-21T14:47:48;4.23;;;2.37;;
8247;SDS011;4164;49.844;8.830;2022-11-21T14:50:22;7.73;;;2.80;;
8247;SDS011;4164;49.844;8.830;2022-11-21T14:52:55;10.03;;;2.80;;
8247;SDS011;4164;49.844;8.830;2022-11-21T14:55:27;7.63;;;2.50;;
8247;SDS011;4164;49.844;8.830;2022-11-21T14:57:55;9.03;;;3.20;;
8247;SDS011;4164;49.844;8.830;2022-11-21T15:00:24;10.27;;;4.90;;
8247;SDS011;4164;49.844;8.830;2022-11-21T15:02:53;26.17;;;11.53;;
8247;SDS011;4164;49.844;8.830;2022-11-21T15:05:21;25.27;;;12.27;;
8247;SDS011;4164;49.844;8.830;2022-11-21T15:07:53;15.63;;;5.23;;
8247;SDS011;4164;49.844;8.830;2022-11-21T15:10:20;9.17;;;4.03;;
8247;SDS011;4164;49.844;8.830;2022-11-21T15:12:59;5.60;;;3.10;;
8247;SDS011;4164;49.844;8.830;2022-11-21T15:15:35;6.03;;;3.23;;
8247;SDS011;4164;49.844;8.830;2022-11-21T15:18:10;7.07;;;2.53;;
8247;SDS011;4164;49.844;8.830;2022-11-21T15:20:43;6.07;;;2.77;;
8247;SDS011;4164;49.844;8.830;2022-11-21T15:23:24;8.50;;;2.67;;
8247;SDS011;4164;49.844;8.830;2022-11-21T15:25:56;6.27;;;2.83;;
8247;SDS011;4164;49.844;8.830;2022-11-21T15:28:22;6.47;;;3.83;;
8247;SDS011;4164;49.844;8.830;2022-11-21T15:31:12;6.80;;;2.93;;
8247;SDS011;4164;49.844;8.830;2022-11-21T15:33:53;10.10;;;3.60;;
8247;SDS011;4164;49.844;8.830;2022-11-21T15:36:29;10.17;;;4.53;;
8247;SDS011;4164;49.844;8.830;2022-11-21T15:41:26;13.73;;;6.67;;
8247;SDS011;4164;49.844;8.830;2022-11-21T15:44:13;7.33;;;4.57;;
8247;SDS011;4164;49.844;8.830;2022-11-21T15:46:44;7.67;;;2.90;;
8247;SDS011;4164;49.844;8.830;2022-11-21T15:49:11;8.77;;;2.83;;
8247;SDS011;4164;49.844;8.830;2022-11-21T15:51:38;4.10;;;2.50;;
8247;SDS011;4164;49.844;8.830;2022-11-21T15:54:12;9.67;;;2.80;;
8247;SDS011;4164;49.844;8.830;2022-11-21T15:56:40;7.67;;;3.10;;
8247;SDS011;4164;49.844;8.830;2022-11-21T15:59:06;10.63;;;3.37;;
8247;SDS011;4164;49.844;8.830;2022-11-21T16:01:32;10.07;;;3.37;;
8247;SDS011;4164;49.844;8.830;2022-11-21T16:03:59;9.00;;;3.73;;
8247;SDS011;4164;49.844;8.830;2022-11-21T16:06:27;8.57;;;3.23;;
8247;SDS011;4164;49.844;8.830;2022-11-21T16:08:54;7.90;;;3.33;;
8247;SDS011;4164;49.844;8.830;2022-11-21T16:11:25;11.03;;;5.20;;
8247;SDS011;4164;49.844;8.830;2022-11-21T16:13:53;11.20;;;4.47;;
8247;SDS011;4164;49.844;8.830;2022-11-21T16:16:21;9.50;;;3.60;;
8247;SDS011;4164;49.844;8.830;2022-11-21T16:18:48;5.80;;;3.20;;
8247;SDS011;4164;49.844;8.830;2022-11-21T16:21:14;9.40;;;3.97;;
8247;SDS011;4164;49.844;8.830;2022-11-21T16:23:39;12.57;;;4.07;;
8247;SDS011;4164;49.844;8.830;2022-11-21T16:26:06;9.90;;;3.60;;
8247;SDS011;4164;49.844;8.830;2022-11-21T16:28:32;10.23;;;3.87;;
8247;SDS011;4164;49.844;8.830;2022-11-21T16:30:59;6.50;;;3.30;;
8247;SDS011;4164;49.844;8.830;2022-11-21T16:33:26;9.30;;;3.37;;
8247;SDS011;4164;49.844;8.830;2022-11-21T16:35:52;6.13;;;3.23;;
8247;SDS011;4164;49.844;8.830;2022-11-21T16:38:24;8.53;;;4.70;;
8247;SDS011;4164;49.844;8.830;2022-11-21T16:41:00;13.87;;;5.57;;
8247;SDS011;4164;49.844;8.830;2022-11-21T16:43:30;8.33;;;4.77;;
8247;SDS011;4164;49.844;8.830;2022-11-21T16:46:04;20.97;;;5.50;;
8247;SDS011;4164;49.844;8.830;2022-11-21T16:48:31;9.27;;;3.90;;
8247;SDS011;4164;49.844;8.830;2022-11-21T16:53:41;12.93;;;4.87;;
8247;SDS011;4164;49.844;8.830;2022-11-21T16:56:07;13.53;;;3.87;;
8247;SDS011;4164;49.844;8.830;2022-11-21T16:58:36;12.30;;;4.90;;
8247;SDS011;4164;49.844;8.830;2022-11-21T17:01:07;13.97;;;5.97;;
8247;SDS011;4164;49.844;8.830;2022-11-21T17:03:37;12.50;;;6.97;;
8247;SDS011;4164;49.844;8.830;2022-11-21T17:06:08;15.37;;;7.17;;
8247;SDS011;4164;49.844;8.830;2022-11-21T17:08:35;16.87;;;7.10;;
8247;SDS011;4164;49.844;8.830;2022-11-21T17:11:15;11.80;;;4.80;;
8247;SDS011;4164;49.844;8.830;2022-11-21T17:13:42;11.57;;;4.63;;
8247;SDS011;4164;49.844;8.830;2022-11-21T17:16:09;10.20;;;5.10;;
8247;SDS011;4164;49.844;8.830;2022-11-21T17:18:36;7.40;;;4.00;;
8247;SDS011;4164;49.844;8.830;2022-11-21T17:21:06;11.50;;;6.73;;
8247;SDS011;4164;49.844;8.830;2022-11-21T17:23:34;18.07;;;6.87;;
8247;SDS011;4164;49.844;8.830;2022-11-21T17:26:02;10.43;;;5.27;;
8247;SDS011;4164;49.844;8.830;2022-11-21T17:28:32;12.87;;;5.10;;